sensor_id;sensor_type;location;lat;lon;timestamp;P1;durP1;ratioP1;P2;durP2;ratioP2
59938;SDS011;45801;51.810;19.444;2023-06-04T00:01:31;9.00;;;3.40;;
59938;SDS011;45801;51.810;19.444;2023-06-04T00:03:57;8.20;;;3.00;;
59938;SDS011;45801;51.810;19.444;2023-06-04T00:06:23;8.10;;;3.50;;
59938;SDS011;45801;51.810;19.444;2023-06-04T00:08:50;9.50;;;3.70;;
59938;SDS011;45801;51.810;19.444;2023-06-04T00:11:16;8.70;;;3.30;;
59938;SDS011;45801;51.810;19.444;2023-06-04T00:13:43;8.30;;;3.40;;
59938;SDS011;45801;51.810;19.444;2023-06-04T00:16:09;7.10;;;3.10;;
59938;SDS011;45801;51.810;19.444;2023-06-04T00:18:36;7.10;;;3.00;;
59938;SDS011;45801;51.810;19.444;2023-06-04T00:21:02;7.40;;;2.60;;
59938;SDS011;45801;51.810;19.444;2023-06-04T00:23:29;7.20;;;2.60;;
59938;SDS011;45801;51.810;19.444;2023-06-04T00:25:56;8.40;;;3.10;;
59938;SDS011;45801;51.810;19.444;2023-06-04T00:28:22;7.40;;;2.70;;
59938;SDS011;45801;51.810;19.444;2023-06-04T00:30:48;7.60;;;2.80;;
59938;SDS011;45801;51.810;19.444;2023-06-04T00:33:15;7.90;;;2.80;;
59938;SDS011;45801;51.810;19.444;2023-06-04T00:38:31;7.50;;;2.60;;
59938;SDS011;45801;51.810;19.444;2023-06-04T00:40:57;8.00;;;3.00;;
59938;SDS011;45801;51.810;19.444;2023-06-04T00:43:24;6.50;;;2.30;;
59938;SDS011;45801;51.810;19.444;2023-06-04T00:45:53;8.00;;;2.40;;
59938;SDS011;45801;51.810;19.444;2023-06-04T00:48:20;7.30;;;2.50;;
59938;SDS011;45801;51.810;19.444;2023-06-04T00:50:47;6.80;;;2.50;;
59938;SDS011;45801;51.810;19.444;2023-06-04T00:53:14;6.60;;;2.70;;
59938;SDS011;45801;51.810;19.444;2023-06-04T00:55:41;7.30;;;2.60;;
59938;SDS011;45801;51.810;19.444;2023-06-04T00:58:08;8.10;;;2.70;;
59938;SDS011;45801;51.810;19.444;2023-06-04T01:00:35;7.30;;;2.60;;
59938;SDS011;45801;51.810;19.444;2023-06-04T01:03:03;7.70;;;3.00;;
59938;SDS011;45801;51.810;19.444;2023-06-04T01:05:40;8.40;;;3.00;;
59938;SDS011;45801;51.810;19.444;2023-06-04T01:08:14;8.70;;;2.50;;
59938;SDS011;45801;51.810;19.444;2023-06-04T01:11:15;7.60;;;2.80;;
59938;SDS011;45801;51.810;19.444;2023-06-04T01:13:34;8.20;;;2.60;;
59938;SDS011;45801;51.810;19.444;2023-06-04T01:16:00;6.00;;;2.30;;
59938;SDS011;45801;51.810;19.444;2023-06-04T01:18:28;6.40;;;2.70;;
59938;SDS011;45801;51.810;19.444;2023-06-04T01:20:59;7.70;;;2.80;;
59938;SDS011;45801;51.810;19.444;2023-06-04T01:23:40;8.60;;;2.80;;
59938;SDS011;45801;51.810;19.444;2023-06-04T01:26:11;6.60;;;2.30;;
59938;SDS011;45801;51.810;19.444;2023-06-04T01:28:39;7.90;;;2.70;;
59938;SDS011;45801;51.810;19.444;2023-06-04T01:31:06;7.40;;;2.70;;
59938;SDS011;45801;51.810;19.444;2023-06-04T01:33:34;7.40;;;2.90;;
59938;SDS011;45801;51.810;19.444;2023-06-04T01:36:01;8.20;;;2.90;;
59938;SDS011;45801;51.810;19.444;2023-06-04T01:38:28;8.70;;;2.80;;
59938;SDS011;45801;51.810;19.444;2023-06-04T01:40:54;6.70;;;2.80;;
59938;SDS011;45801;51.810;19.444;2023-06-04T01:43:22;7.30;;;2.80;;
59938;SDS011;45801;51.810;19.444;2023-06-04T01:45:49;6.50;;;2.50;;
59938;SDS011;45801;51.810;19.444;2023-06-04T01:48:15;6.80;;;3.00;;
59938;SDS011;45801;51.810;19.444;2023-06-04T01:50:42;7.80;;;2.40;;
59938;SDS011;45801;51.810;19.444;2023-06-04T01:53:08;7.70;;;2.60;;
59938;SDS011;45801;51.810;19.444;2023-06-04T01:55:34;8.50;;;2.80;;
59938;SDS011;45801;51.810;19.444;2023-06-04T01:58:01;7.10;;;2.20;;
59938;SDS011;45801;51.810;19.444;2023-06-04T02:00:27;6.50;;;2.30;;
59938;SDS011;45801;51.810;19.444;2023-06-04T02:02:54;6.60;;;2.60;;
59938;SDS011;45801;51.810;19.444;2023-06-04T02:05:22;6.10;;;2.40;;
59938;SDS011;45801;51.810;19.444;2023-06-04T02:07:48;7.30;;;2.60;;
59938;SDS011;45801;51.810;19.444;2023-06-04T02:10:16;6.00;;;2.50;;
59938;SDS011;45801;51.810;19.444;2023-06-04T02:12:54;6.30;;;2.40;;
59938;SDS011;45801;51.810;19.444;2023-06-04T02:15:31;6.20;;;2.30;;
59938;SDS011;45801;51.810;19.444;2023-06-04T02:17:59;6.10;;;2.50;;
59938;SDS011;45801;51.810;19.444;2023-06-04T02:20:42;6.90;;;2.80;;
59938;SDS011;45801;51.810;19.444;2023-06-04T02:23:10;7.60;;;2.60;;
59938;SDS011;45801;51.810;19.444;2023-06-04T02:25:38;7.10;;;2.70;;
59938;SDS011;45801;51.810;19.444;2023-06-04T02:28:04;7.40;;;2.90;;
59938;SDS011;45801;51.810;19.444;2023-06-04T02:30:31;7.80;;;3.00;;
59938;SDS011;45801;51.810;19.444;2023-06-04T02:32:57;7.80;;;2.60;;
59938;SDS011;45801;51.810;19.444;2023-06-04T02:35:27;7.30;;;2.80;;
59938;SDS011;45801;51.810;19.444;2023-06-04T02:37:54;8.60;;;3.20;;
59938;SDS011;45801;51.810;19.444;2023-06-04T02:40:24;6.70;;;2.30;;
59938;SDS011;45801;51.810;19.444;2023-06-04T02:42:54;8.20;;;2.80;;
59938;SDS011;45801;51.810;19.444;2023-06-04T02:45:22;8.50;;;2.90;;
59938;SDS011;45801;51.810;19.444;2023-06-04T02:47:49;7.20;;;2.60;;
59938;SDS011;45801;51.810;19.444;2023-06-04T02:50:15;8.40;;;2.80;;
59938;SDS011;45801;51.810;19.444;2023-06-04T02:52:42;7.60;;;3.20;;
59938;SDS011;45801;51.810;19.444;2023-06-04T02:55:09;6.40;;;2.20;;
59938;SDS011;45801;51.810;19.444;2023-06-04T02:57:41;7.50;;;2.90;;
59938;SDS011;45801;51.810;19.444;2023-06-04T03:00:09;7.30;;;2.50;;
59938;SDS011;45801;51.810;19.444;2023-06-04T03:02:41;7.50;;;2.80;;
59938;SDS011;45801;51.810;19.444;2023-06-04T03:05:09;6.90;;;2.50;;
59938;SDS011;45801;51.810;19.444;2023-06-04T03:07:37;7.60;;;3.10;;
59938;SDS011;45801;51.810;19.444;2023-06-04T03:10:03;7.20;;;2.50;;
59938;SDS011;45801;51.810;19.444;2023-06-04T03:12:33;7.70;;;2.80;;
59938;SDS011;45801;51.810;19.444;2023-06-04T03:15:00;7.40;;;2.60;;
59938;SDS011;45801;51.810;19.444;2023-06-04T03:17:26;8.40;;;2.70;;
59938;SDS011;45801;51.810;19.444;2023-06-04T03:19:53;7.00;;;2.40;;
59938;SDS011;45801;51.810;19.444;2023-06-04T03:22:19;7.70;;;2.80;;
59938;SDS011;45801;51.810;19.444;2023-06-04T03:24:46;6.00;;;2.40;;
59938;SDS011;45801;51.810;19.444;2023-06-04T03:27:13;6.60;;;2.10;;
59938;SDS011;45801;51.810;19.444;2023-06-04T03:29:39;7.10;;;2.60;;
59938;SDS011;45801;51.810;19.444;2023-06-04T03:32:06;6.40;;;2.40;;
59938;SDS011;45801;51.810;19.444;2023-06-04T03:34:33;6.00;;;2.30;;
59938;SDS011;45801;51.810;19.444;2023-06-04T03:36:59;7.60;;;2.60;;
59938;SDS011;45801;51.810;19.444;2023-06-04T03:39:26;6.90;;;2.30;;
59938;SDS011;45801;51.810;19.444;2023-06-04T03:41:53;6.40;;;2.30;;
59938;SDS011;45801;51.810;19.444;2023-06-04T03:44:20;7.20;;;2.80;;
59938;SDS011;45801;51.810;19.444;2023-06-04T03:46:47;7.00;;;2.40;;
59938;SDS011;45801;51.810;19.444;2023-06-04T03:49:14;7.00;;;2.30;;
59938;SDS011;45801;51.810;19.444;2023-06-04T03:51:41;6.10;;;2.40;;
59938;SDS011;45801;51.810;19.444;2023-06-04T03:54:07;6.70;;;2.60;;
59938;SDS011;45801;51.810;19.444;2023-06-04T03:56:34;6.30;;;2.40;;
59938;SDS011;45801;51.810;19.444;2023-06-04T03:59:00;6.40;;;2.50;;
59938;SDS011;45801;51.810;19.444;2023-06-04T04:01:27;7.60;;;2.70;;
59938;SDS011;45801;51.810;19.444;2023-06-04T04:03:54;6.30;;;2.40;;
59938;SDS011;45801;51.810;19.444;2023-06-04T04:06:21;6.60;;;2.20;;
59938;SDS011;45801;51.810;19.444;2023-06-04T04:08:47;7.50;;;2.40;;
59938;SDS011;45801;51.810;19.444;2023-06-04T04:11:15;6.30;;;2.50;;
59938;SDS011;45801;51.810;19.444;2023-06-04T04:13:44;6.60;;;2.30;;
59938;SDS011;45801;51.810;19.444;2023-06-04T04:16:11;6.30;;;2.10;;
59938;SDS011;45801;51.810;19.444;2023-06-04T04:18:41;6.50;;;2.60;;
59938;SDS011;45801;51.810;19.444;2023-06-04T04:21:11;7.50;;;2.30;;
59938;SDS011;45801;51.810;19.444;2023-06-04T04:23:38;6.90;;;2.10;;
59938;SDS011;45801;51.810;19.444;2023-06-04T04:26:08;5.20;;;2.20;;
59938;SDS011;45801;51.810;19.444;2023-06-04T04:28:36;5.10;;;1.90;;
59938;SDS011;45801;51.810;19.444;2023-06-04T04:31:04;5.20;;;1.80;;
59938;SDS011;45801;51.810;19.444;2023-06-04T04:33:30;6.00;;;2.00;;
59938;SDS011;45801;51.810;19.444;2023-06-04T04:36:05;7.50;;;2.30;;
59938;SDS011;45801;51.810;19.444;2023-06-04T04:38:35;6.60;;;1.90;;
59938;SDS011;45801;51.810;19.444;2023-06-04T04:41:01;5.10;;;2.10;;
59938;SDS011;45801;51.810;19.444;2023-06-04T04:43:28;5.90;;;1.80;;
59938;SDS011;45801;51.810;19.444;2023-06-04T04:45:58;5.80;;;1.90;;
59938;SDS011;45801;51.810;19.444;2023-06-04T04:48:25;7.00;;;2.00;;
59938;SDS011;45801;51.810;19.444;2023-06-04T04:50:52;4.70;;;1.70;;
59938;SDS011;45801;51.810;19.444;2023-06-04T04:53:19;5.70;;;1.70;;
59938;SDS011;45801;51.810;19.444;2023-06-04T04:55:46;6.00;;;1.90;;
59938;SDS011;45801;51.810;19.444;2023-06-04T04:58:13;5.50;;;1.50;;
59938;SDS011;45801;51.810;19.444;2023-06-04T05:00:40;5.00;;;1.60;;
59938;SDS011;45801;51.810;19.444;2023-06-04T05:03:06;7.30;;;1.80;;
59938;SDS011;45801;51.810;19.444;2023-06-04T05:05:33;5.80;;;1.80;;
59938;SDS011;45801;51.810;19.444;2023-06-04T05:07:59;5.40;;;2.00;;
59938;SDS011;45801;51.810;19.444;2023-06-04T05:10:26;4.70;;;1.60;;
59938;SDS011;45801;51.810;19.444;2023-06-04T05:12:52;7.10;;;2.00;;
59938;SDS011;45801;51.810;19.444;2023-06-04T05:15:20;4.80;;;1.60;;
59938;SDS011;45801;51.810;19.444;2023-06-04T05:17:46;6.50;;;1.80;;
59938;SDS011;45801;51.810;19.444;2023-06-04T05:20:13;6.40;;;1.90;;
59938;SDS011;45801;51.810;19.444;2023-06-04T05:22:41;5.50;;;1.80;;
59938;SDS011;45801;51.810;19.444;2023-06-04T05:25:09;4.90;;;1.90;;
59938;SDS011;45801;51.810;19.444;2023-06-04T05:27:37;5.60;;;1.70;;
59938;SDS011;45801;51.810;19.444;2023-06-04T05:30:04;5.60;;;1.70;;
59938;SDS011;45801;51.810;19.444;2023-06-04T05:32:31;6.20;;;2.00;;
59938;SDS011;45801;51.810;19.444;2023-06-04T05:34:58;7.20;;;1.90;;
59938;SDS011;45801;51.810;19.444;2023-06-04T05:37:25;5.00;;;1.80;;
59938;SDS011;45801;51.810;19.444;2023-06-04T05:39:53;8.60;;;1.60;;
59938;SDS011;45801;51.810;19.444;2023-06-04T05:42:20;6.20;;;1.70;;
59938;SDS011;45801;51.810;19.444;2023-06-04T05:44:46;5.60;;;1.30;;
59938;SDS011;45801;51.810;19.444;2023-06-04T05:47:13;6.40;;;1.40;;
59938;SDS011;45801;51.810;19.444;2023-06-04T05:49:42;3.60;;;1.20;;
59938;SDS011;45801;51.810;19.444;2023-06-04T05:52:09;4.20;;;1.40;;
59938;SDS011;45801;51.810;19.444;2023-06-04T05:54:35;5.50;;;1.50;;
59938;SDS011;45801;51.810;19.444;2023-06-04T05:57:04;3.30;;;1.10;;
59938;SDS011;45801;51.810;19.444;2023-06-04T05:59:33;5.10;;;1.30;;
59938;SDS011;45801;51.810;19.444;2023-06-04T06:02:00;5.70;;;1.80;;
59938;SDS011;45801;51.810;19.444;2023-06-04T06:04:27;3.10;;;1.20;;
59938;SDS011;45801;51.810;19.444;2023-06-04T06:06:53;4.90;;;1.30;;
59938;SDS011;45801;51.810;19.444;2023-06-04T06:09:20;3.70;;;1.50;;
59938;SDS011;45801;51.810;19.444;2023-06-04T06:11:46;5.20;;;1.80;;
59938;SDS011;45801;51.810;19.444;2023-06-04T06:14:12;4.80;;;1.90;;
59938;SDS011;45801;51.810;19.444;2023-06-04T06:16:39;4.90;;;1.40;;
59938;SDS011;45801;51.810;19.444;2023-06-04T06:19:09;4.10;;;1.40;;
59938;SDS011;45801;51.810;19.444;2023-06-04T06:21:37;5.20;;;1.30;;
59938;SDS011;45801;51.810;19.444;2023-06-04T06:24:04;5.20;;;1.20;;
59938;SDS011;45801;51.810;19.444;2023-06-04T06:26:31;4.00;;;1.20;;
59938;SDS011;45801;51.810;19.444;2023-06-04T06:28:57;3.90;;;1.30;;
59938;SDS011;45801;51.810;19.444;2023-06-04T06:31:24;4.80;;;1.20;;
59938;SDS011;45801;51.810;19.444;2023-06-04T06:33:52;3.70;;;1.10;;
59938;SDS011;45801;51.810;19.444;2023-06-04T06:36:18;2.20;;;0.90;;
59938;SDS011;45801;51.810;19.444;2023-06-04T06:38:46;5.60;;;1.00;;
59938;SDS011;45801;51.810;19.444;2023-06-04T06:41:12;5.60;;;1.40;;
59938;SDS011;45801;51.810;19.444;2023-06-04T06:43:39;4.30;;;1.00;;
59938;SDS011;45801;51.810;19.444;2023-06-04T06:46:05;3.10;;;1.10;;
59938;SDS011;45801;51.810;19.444;2023-06-04T06:48:33;3.60;;;1.00;;
59938;SDS011;45801;51.810;19.444;2023-06-04T06:50:59;3.60;;;1.00;;
59938;SDS011;45801;51.810;19.444;2023-06-04T06:53:26;3.20;;;0.90;;
59938;SDS011;45801;51.810;19.444;2023-06-04T06:55:52;4.80;;;1.20;;
59938;SDS011;45801;51.810;19.444;2023-06-04T06:58:18;3.60;;;1.20;;
59938;SDS011;45801;51.810;19.444;2023-06-04T07:00:45;3.50;;;1.00;;
59938;SDS011;45801;51.810;19.444;2023-06-04T07:03:11;3.60;;;1.20;;
59938;SDS011;45801;51.810;19.444;2023-06-04T07:05:39;2.90;;;1.00;;
59938;SDS011;45801;51.810;19.444;2023-06-04T07:08:06;5.10;;;1.10;;
59938;SDS011;45801;51.810;19.444;2023-06-04T07:10:32;3.20;;;1.20;;
59938;SDS011;45801;51.810;19.444;2023-06-04T07:12:59;3.90;;;0.90;;
59938;SDS011;45801;51.810;19.444;2023-06-04T07:15:25;3.80;;;1.00;;
59938;SDS011;45801;51.810;19.444;2023-06-04T07:17:51;4.40;;;1.10;;
59938;SDS011;45801;51.810;19.444;2023-06-04T07:20:18;5.70;;;1.50;;
59938;SDS011;45801;51.810;19.444;2023-06-04T07:22:44;3.50;;;1.00;;
59938;SDS011;45801;51.810;19.444;2023-06-04T07:25:11;3.30;;;1.00;;
59938;SDS011;45801;51.810;19.444;2023-06-04T07:27:37;2.90;;;0.90;;
59938;SDS011;45801;51.810;19.444;2023-06-04T07:30:05;4.30;;;1.30;;
59938;SDS011;45801;51.810;19.444;2023-06-04T07:32:32;4.50;;;1.10;;
59938;SDS011;45801;51.810;19.444;2023-06-04T07:34:59;2.50;;;0.90;;
59938;SDS011;45801;51.810;19.444;2023-06-04T07:37:25;6.30;;;1.20;;
59938;SDS011;45801;51.810;19.444;2023-06-04T07:39:52;4.20;;;1.30;;
59938;SDS011;45801;51.810;19.444;2023-06-04T07:42:18;2.80;;;0.80;;
59938;SDS011;45801;51.810;19.444;2023-06-04T07:44:45;2.80;;;0.90;;
59938;SDS011;45801;51.810;19.444;2023-06-04T07:47:11;3.60;;;1.10;;
59938;SDS011;45801;51.810;19.444;2023-06-04T07:49:38;2.90;;;0.90;;
59938;SDS011;45801;51.810;19.444;2023-06-04T07:52:04;3.60;;;1.00;;
59938;SDS011;45801;51.810;19.444;2023-06-04T07:54:33;5.80;;;1.80;;
59938;SDS011;45801;51.810;19.444;2023-06-04T07:56:59;4.70;;;1.20;;
59938;SDS011;45801;51.810;19.444;2023-06-04T07:59:26;3.50;;;1.10;;
59938;SDS011;45801;51.810;19.444;2023-06-04T08:01:52;1.90;;;0.80;;
59938;SDS011;45801;51.810;19.444;2023-06-04T08:04:19;3.60;;;1.00;;
59938;SDS011;45801;51.810;19.444;2023-06-04T08:06:46;4.60;;;1.10;;
59938;SDS011;45801;51.810;19.444;2023-06-04T08:09:12;6.10;;;1.10;;
59938;SDS011;45801;51.810;19.444;2023-06-04T08:11:41;4.30;;;1.10;;
59938;SDS011;45801;51.810;19.444;2023-06-04T08:14:11;3.00;;;0.90;;
59938;SDS011;45801;51.810;19.444;2023-06-04T08:16:39;2.80;;;0.90;;
59938;SDS011;45801;51.810;19.444;2023-06-04T08:19:06;2.10;;;0.90;;
59938;SDS011;45801;51.810;19.444;2023-06-04T08:21:34;4.00;;;0.90;;
59938;SDS011;45801;51.810;19.444;2023-06-04T08:24:00;3.50;;;0.80;;
59938;SDS011;45801;51.810;19.444;2023-06-04T08:26:27;4.40;;;1.00;;
59938;SDS011;45801;51.810;19.444;2023-06-04T08:28:54;4.10;;;1.10;;
59938;SDS011;45801;51.810;19.444;2023-06-04T08:31:21;3.60;;;1.00;;
59938;SDS011;45801;51.810;19.444;2023-06-04T08:33:47;3.00;;;1.00;;
59938;SDS011;45801;51.810;19.444;2023-06-04T08:36:14;6.10;;;1.50;;
59938;SDS011;45801;51.810;19.444;2023-06-04T08:38:42;3.80;;;0.90;;
59938;SDS011;45801;51.810;19.444;2023-06-04T08:41:20;2.50;;;0.80;;
59938;SDS011;45801;51.810;19.444;2023-06-04T08:43:55;3.70;;;0.90;;
59938;SDS011;45801;51.810;19.444;2023-06-04T08:46:30;3.30;;;1.00;;
59938;SDS011;45801;51.810;19.444;2023-06-04T08:48:59;3.90;;;1.00;;
59938;SDS011;45801;51.810;19.444;2023-06-04T08:51:33;2.90;;;0.80;;
59938;SDS011;45801;51.810;19.444;2023-06-04T08:54:03;4.30;;;0.90;;
59938;SDS011;45801;51.810;19.444;2023-06-04T08:56:31;2.50;;;0.90;;
59938;SDS011;45801;51.810;19.444;2023-06-04T08:59:00;2.40;;;0.80;;
59938;SDS011;45801;51.810;19.444;2023-06-04T09:01:29;4.10;;;0.80;;
59938;SDS011;45801;51.810;19.444;2023-06-04T09:03:58;4.60;;;1.10;;
59938;SDS011;45801;51.810;19.444;2023-06-04T09:06:25;2.20;;;0.80;;
59938;SDS011;45801;51.810;19.444;2023-06-04T09:08:56;2.00;;;0.70;;
59938;SDS011;45801;51.810;19.444;2023-06-04T09:11:26;5.70;;;1.40;;
59938;SDS011;45801;51.810;19.444;2023-06-04T09:13:59;2.50;;;0.80;;
59938;SDS011;45801;51.810;19.444;2023-06-04T09:16:29;2.70;;;0.90;;
59938;SDS011;45801;51.810;19.444;2023-06-04T09:19:02;3.40;;;0.90;;
59938;SDS011;45801;51.810;19.444;2023-06-04T09:21:30;3.70;;;0.80;;
59938;SDS011;45801;51.810;19.444;2023-06-04T09:23:57;3.20;;;0.80;;
59938;SDS011;45801;51.810;19.444;2023-06-04T09:26:25;4.80;;;1.00;;
59938;SDS011;45801;51.810;19.444;2023-06-04T09:28:52;2.30;;;0.70;;
59938;SDS011;45801;51.810;19.444;2023-06-04T09:31:21;5.60;;;1.20;;
59938;SDS011;45801;51.810;19.444;2023-06-04T09:33:52;4.50;;;0.90;;
59938;SDS011;45801;51.810;19.444;2023-06-04T09:36:19;4.40;;;0.90;;
59938;SDS011;45801;51.810;19.444;2023-06-04T09:38:46;4.10;;;1.10;;
59938;SDS011;45801;51.810;19.444;2023-06-04T09:41:14;4.30;;;0.90;;
59938;SDS011;45801;51.810;19.444;2023-06-04T09:43:43;2.90;;;1.00;;
59938;SDS011;45801;51.810;19.444;2023-06-04T09:46:13;2.80;;;0.90;;
59938;SDS011;45801;51.810;19.444;2023-06-04T09:48:40;4.30;;;1.20;;
59938;SDS011;45801;51.810;19.444;2023-06-04T09:51:08;2.90;;;0.90;;
59938;SDS011;45801;51.810;19.444;2023-06-04T09:53:42;4.90;;;1.40;;
59938;SDS011;45801;51.810;19.444;2023-06-04T09:56:20;4.00;;;0.80;;
59938;SDS011;45801;51.810;19.444;2023-06-04T09:58:48;3.70;;;1.00;;
59938;SDS011;45801;51.810;19.444;2023-06-04T10:01:15;4.00;;;0.90;;
59938;SDS011;45801;51.810;19.444;2023-06-04T10:03:47;3.30;;;0.80;;
59938;SDS011;45801;51.810;19.444;2023-06-04T10:06:16;2.50;;;0.90;;
59938;SDS011;45801;51.810;19.444;2023-06-04T10:08:45;4.40;;;1.10;;
59938;SDS011;45801;51.810;19.444;2023-06-04T10:11:14;3.20;;;0.80;;
59938;SDS011;45801;51.810;19.444;2023-06-04T10:14:07;2.80;;;0.80;;
59938;SDS011;45801;51.810;19.444;2023-06-04T10:16:43;3.70;;;1.10;;
59938;SDS011;45801;51.810;19.444;2023-06-04T10:19:10;2.90;;;1.10;;
59938;SDS011;45801;51.810;19.444;2023-06-04T10:21:37;3.40;;;0.90;;
59938;SDS011;45801;51.810;19.444;2023-06-04T10:24:04;3.10;;;1.30;;
59938;SDS011;45801;51.810;19.444;2023-06-04T10:26:32;3.00;;;1.10;;
59938;SDS011;45801;51.810;19.444;2023-06-04T10:29:01;2.80;;;1.00;;
59938;SDS011;45801;51.810;19.444;2023-06-04T10:31:29;4.80;;;1.10;;
59938;SDS011;45801;51.810;19.444;2023-06-04T10:33:56;2.50;;;0.80;;
59938;SDS011;45801;51.810;19.444;2023-06-04T10:36:23;5.00;;;1.00;;
59938;SDS011;45801;51.810;19.444;2023-06-04T10:38:54;3.50;;;1.00;;
59938;SDS011;45801;51.810;19.444;2023-06-04T10:41:22;4.00;;;1.10;;
59938;SDS011;45801;51.810;19.444;2023-06-04T10:43:51;3.60;;;1.10;;
59938;SDS011;45801;51.810;19.444;2023-06-04T10:46:36;3.30;;;0.80;;
59938;SDS011;45801;51.810;19.444;2023-06-04T10:49:05;3.20;;;0.80;;
59938;SDS011;45801;51.810;19.444;2023-06-04T10:51:34;3.10;;;1.10;;
59938;SDS011;45801;51.810;19.444;2023-06-04T10:57:11;4.70;;;0.90;;
59938;SDS011;45801;51.810;19.444;2023-06-04T10:59:42;2.00;;;0.80;;
59938;SDS011;45801;51.810;19.444;2023-06-04T11:02:23;2.50;;;0.90;;
59938;SDS011;45801;51.810;19.444;2023-06-04T11:05:02;2.50;;;1.20;;
59938;SDS011;45801;51.810;19.444;2023-06-04T11:07:45;4.00;;;1.10;;
59938;SDS011;45801;51.810;19.444;2023-06-04T11:10:14;2.90;;;1.00;;
59938;SDS011;45801;51.810;19.444;2023-06-04T11:12:46;2.40;;;1.00;;
59938;SDS011;45801;51.810;19.444;2023-06-04T11:15:16;3.90;;;1.00;;
59938;SDS011;45801;51.810;19.444;2023-06-04T11:17:52;4.10;;;0.90;;
59938;SDS011;45801;51.810;19.444;2023-06-04T11:20:21;2.70;;;1.00;;
59938;SDS011;45801;51.810;19.444;2023-06-04T11:22:55;3.10;;;1.00;;
59938;SDS011;45801;51.810;19.444;2023-06-04T11:25:26;4.50;;;1.10;;
59938;SDS011;45801;51.810;19.444;2023-06-04T11:27:55;3.90;;;0.90;;
59938;SDS011;45801;51.810;19.444;2023-06-04T11:30:23;2.00;;;0.80;;
59938;SDS011;45801;51.810;19.444;2023-06-04T11:32:50;3.90;;;0.70;;
59938;SDS011;45801;51.810;19.444;2023-06-04T11:35:26;2.10;;;0.70;;
59938;SDS011;45801;51.810;19.444;2023-06-04T11:37:53;3.10;;;0.80;;
59938;SDS011;45801;51.810;19.444;2023-06-04T11:40:21;4.60;;;1.00;;
59938;SDS011;45801;51.810;19.444;2023-06-04T11:42:48;1.20;;;0.60;;
59938;SDS011;45801;51.810;19.444;2023-06-04T11:45:17;3.40;;;1.00;;
59938;SDS011;45801;51.810;19.444;2023-06-04T11:47:48;3.60;;;1.10;;
59938;SDS011;45801;51.810;19.444;2023-06-04T11:50:19;3.90;;;0.80;;
59938;SDS011;45801;51.810;19.444;2023-06-04T11:52:47;5.10;;;1.10;;
59938;SDS011;45801;51.810;19.444;2023-06-04T11:55:14;3.10;;;1.00;;
59938;SDS011;45801;51.810;19.444;2023-06-04T11:57:43;4.00;;;0.90;;
59938;SDS011;45801;51.810;19.444;2023-06-04T12:00:10;3.50;;;1.00;;
59938;SDS011;45801;51.810;19.444;2023-06-04T12:02:38;3.30;;;1.00;;
59938;SDS011;45801;51.810;19.444;2023-06-04T12:05:14;2.50;;;1.00;;
59938;SDS011;45801;51.810;19.444;2023-06-04T12:07:42;3.60;;;1.00;;
59938;SDS011;45801;51.810;19.444;2023-06-04T12:10:08;3.10;;;1.00;;
59938;SDS011;45801;51.810;19.444;2023-06-04T12:12:35;3.70;;;1.10;;
59938;SDS011;45801;51.810;19.444;2023-06-04T12:15:02;2.90;;;0.90;;
59938;SDS011;45801;51.810;19.444;2023-06-04T12:17:31;3.40;;;1.00;;
59938;SDS011;45801;51.810;19.444;2023-06-04T12:19:58;2.80;;;0.90;;
59938;SDS011;45801;51.810;19.444;2023-06-04T12:22:25;3.10;;;1.20;;
59938;SDS011;45801;51.810;19.444;2023-06-04T12:24:57;2.90;;;0.90;;
59938;SDS011;45801;51.810;19.444;2023-06-04T12:27:25;3.50;;;1.00;;
59938;SDS011;45801;51.810;19.444;2023-06-04T12:30:00;3.50;;;0.90;;
59938;SDS011;45801;51.810;19.444;2023-06-04T12:32:30;6.90;;;1.40;;
59938;SDS011;45801;51.810;19.444;2023-06-04T12:34:57;2.70;;;1.20;;
59938;SDS011;45801;51.810;19.444;2023-06-04T12:37:24;2.70;;;0.90;;
59938;SDS011;45801;51.810;19.444;2023-06-04T12:39:53;2.50;;;1.00;;
59938;SDS011;45801;51.810;19.444;2023-06-04T12:42:20;3.30;;;1.10;;
59938;SDS011;45801;51.810;19.444;2023-06-04T12:44:47;5.80;;;1.50;;
59938;SDS011;45801;51.810;19.444;2023-06-04T12:47:14;3.50;;;1.00;;
59938;SDS011;45801;51.810;19.444;2023-06-04T12:49:44;3.30;;;1.00;;
59938;SDS011;45801;51.810;19.444;2023-06-04T12:52:12;3.60;;;1.10;;
59938;SDS011;45801;51.810;19.444;2023-06-04T12:54:42;3.90;;;1.00;;
59938;SDS011;45801;51.810;19.444;2023-06-04T12:57:09;3.40;;;1.00;;
59938;SDS011;45801;51.810;19.444;2023-06-04T12:59:36;5.10;;;1.20;;
59938;SDS011;45801;51.810;19.444;2023-06-04T13:02:02;6.20;;;1.10;;
59938;SDS011;45801;51.810;19.444;2023-06-04T13:04:29;4.90;;;1.10;;
59938;SDS011;45801;51.810;19.444;2023-06-04T13:06:56;1.40;;;0.80;;
59938;SDS011;45801;51.810;19.444;2023-06-04T13:09:25;2.70;;;0.80;;
59938;SDS011;45801;51.810;19.444;2023-06-04T13:11:54;8.20;;;1.40;;
59938;SDS011;45801;51.810;19.444;2023-06-04T13:14:20;5.00;;;1.70;;
59938;SDS011;45801;51.810;19.444;2023-06-04T13:16:48;2.30;;;0.80;;
59938;SDS011;45801;51.810;19.444;2023-06-04T13:19:15;3.30;;;1.10;;
59938;SDS011;45801;51.810;19.444;2023-06-04T13:21:41;3.40;;;1.00;;
59938;SDS011;45801;51.810;19.444;2023-06-04T13:24:09;2.70;;;0.80;;
59938;SDS011;45801;51.810;19.444;2023-06-04T13:26:37;2.90;;;0.80;;
59938;SDS011;45801;51.810;19.444;2023-06-04T13:29:05;3.60;;;0.90;;
59938;SDS011;45801;51.810;19.444;2023-06-04T13:31:31;2.90;;;1.00;;
59938;SDS011;45801;51.810;19.444;2023-06-04T13:33:58;3.60;;;1.00;;
59938;SDS011;45801;51.810;19.444;2023-06-04T13:36:24;4.20;;;1.40;;
59938;SDS011;45801;51.810;19.444;2023-06-04T13:38:52;4.30;;;1.20;;
59938;SDS011;45801;51.810;19.444;2023-06-04T13:41:21;3.80;;;1.00;;
59938;SDS011;45801;51.810;19.444;2023-06-04T13:43:47;1.70;;;0.80;;
59938;SDS011;45801;51.810;19.444;2023-06-04T13:46:14;4.10;;;0.90;;
59938;SDS011;45801;51.810;19.444;2023-06-04T13:48:40;2.80;;;0.90;;
59938;SDS011;45801;51.810;19.444;2023-06-04T13:51:07;3.50;;;1.00;;
59938;SDS011;45801;51.810;19.444;2023-06-04T13:53:33;3.10;;;1.10;;
59938;SDS011;45801;51.810;19.444;2023-06-04T13:56:00;3.90;;;0.90;;
59938;SDS011;45801;51.810;19.444;2023-06-04T13:58:26;2.30;;;0.90;;
59938;SDS011;45801;51.810;19.444;2023-06-04T14:00:53;2.90;;;1.00;;
59938;SDS011;45801;51.810;19.444;2023-06-04T14:03:20;3.30;;;0.90;;
59938;SDS011;45801;51.810;19.444;2023-06-04T14:05:46;2.50;;;0.80;;
59938;SDS011;45801;51.810;19.444;2023-06-04T14:08:13;3.80;;;1.30;;
59938;SDS011;45801;51.810;19.444;2023-06-04T14:10:40;2.80;;;0.90;;
59938;SDS011;45801;51.810;19.444;2023-06-04T14:16:03;3.90;;;1.20;;
59938;SDS011;45801;51.810;19.444;2023-06-04T14:18:30;3.60;;;1.10;;
59938;SDS011;45801;51.810;19.444;2023-06-04T14:20:57;1.80;;;0.80;;
59938;SDS011;45801;51.810;19.444;2023-06-04T14:23:23;2.60;;;1.00;;
59938;SDS011;45801;51.810;19.444;2023-06-04T14:25:50;3.10;;;0.80;;
59938;SDS011;45801;51.810;19.444;2023-06-04T14:28:16;6.90;;;1.00;;
59938;SDS011;45801;51.810;19.444;2023-06-04T14:30:44;3.60;;;1.10;;
59938;SDS011;45801;51.810;19.444;2023-06-04T14:33:10;4.30;;;1.10;;
59938;SDS011;45801;51.810;19.444;2023-06-04T14:35:37;3.20;;;1.00;;
59938;SDS011;45801;51.810;19.444;2023-06-04T14:38:04;3.80;;;1.00;;
59938;SDS011;45801;51.810;19.444;2023-06-04T14:40:31;3.20;;;0.90;;
59938;SDS011;45801;51.810;19.444;2023-06-04T14:43:01;4.70;;;0.90;;
59938;SDS011;45801;51.810;19.444;2023-06-04T14:45:28;5.30;;;1.80;;
59938;SDS011;45801;51.810;19.444;2023-06-04T14:47:57;3.70;;;1.10;;